createdAt,value
2024-02-12T00:01:30.745Z,15.40
2024-02-12T00:04:04.319Z,15.35
2024-02-12T00:06:37.636Z,15.37
2024-02-12T00:09:14.067Z,15.32
2024-02-12T00:11:47.524Z,15.35
2024-02-12T00:14:21.155Z,15.32
2024-02-12T00:16:55.877Z,15.28
2024-02-12T00:19:30.116Z,15.23
2024-02-12T00:22:03.135Z,15.25
2024-02-12T00:24:38.410Z,15.25
2024-02-12T00:27:12.418Z,15.24
2024-02-12T00:29:45.643Z,15.25
2024-02-12T00:32:18.903Z,15.26
2024-02-12T00:34:52.161Z,15.26
2024-02-12T00:37:27.396Z,15.29
2024-02-12T00:40:01.792Z,15.31
2024-02-12T00:42:35.968Z,15.30
2024-02-12T00:45:10.556Z,15.35
2024-02-12T00:47:43.924Z,15.29
2024-02-12T00:50:17.094Z,15.29
2024-02-12T00:52:51.016Z,15.33
2024-02-12T00:55:25.649Z,15.27
2024-02-12T00:58:00.748Z,15.26
2024-02-12T01:00:33.887Z,15.24
2024-02-12T01:03:07.770Z,15.27
2024-02-12T01:05:41.081Z,15.27
2024-02-12T01:08:14.433Z,15.24
2024-02-12T01:10:49.256Z,15.27
2024-02-12T01:13:22.527Z,15.26
2024-02-12T01:15:56.188Z,15.25
2024-02-12T01:18:30.560Z,15.26
2024-02-12T01:21:04.301Z,15.24
2024-02-12T01:23:37.689Z,15.24
2024-02-12T01:26:14.686Z,15.28
2024-02-12T01:28:47.761Z,15.30
2024-02-12T01:31:20.967Z,15.27
2024-02-12T01:33:54.104Z,15.27
2024-02-12T01:36:28.269Z,15.26
2024-02-12T01:39:01.916Z,15.28
2024-02-12T01:41:38.165Z,15.29
2024-02-12T01:44:11.347Z,15.25
2024-02-12T01:46:50.067Z,15.26
2024-02-12T01:49:24.323Z,15.25
2024-02-12T01:51:57.314Z,15.23
2024-02-12T01:54:30.862Z,15.25
2024-02-12T01:57:06.709Z,15.19
2024-02-12T01:59:41.163Z,15.20
2024-02-12T02:02:16.287Z,15.16
2024-02-12T02:04:55.541Z,15.15
2024-02-12T02:07:28.861Z,15.13
2024-02-12T02:10:02.918Z,15.15
2024-02-12T02:12:37.735Z,15.12
2024-02-12T02:15:11.931Z,15.14
2024-02-12T02:17:45.128Z,15.16
2024-02-12T02:20:22.043Z,15.15
2024-02-12T02:22:55.686Z,15.14
2024-02-12T02:25:30.493Z,15.18
2024-02-12T02:28:06.193Z,15.18
2024-02-12T02:30:40.324Z,15.19
2024-02-12T02:33:13.937Z,15.15
2024-02-12T02:35:49.229Z,15.17
2024-02-12T02:38:24.167Z,15.18
2024-02-12T02:40:58.812Z,15.16
2024-02-12T02:43:32.761Z,15.14
2024-02-12T02:46:06.337Z,15.10
2024-02-12T02:48:41.193Z,15.12
2024-02-12T02:51:15.514Z,15.14
2024-02-12T02:53:48.580Z,15.13
2024-02-12T02:56:23.780Z,15.13
2024-02-12T02:58:57.333Z,15.23
2024-02-12T03:01:31.082Z,15.23
2024-02-12T03:04:04.409Z,15.22
2024-02-12T03:06:38.902Z,15.27
2024-02-12T03:09:12.084Z,15.30
2024-02-12T03:11:46.632Z,15.32
2024-02-12T03:14:19.863Z,15.36
2024-02-12T03:16:55.089Z,15.41
2024-02-12T03:19:28.125Z,15.44
2024-02-12T03:22:01.184Z,15.32
2024-02-12T03:24:34.308Z,15.31
2024-02-12T03:27:09.513Z,15.29
2024-02-12T03:29:43.981Z,15.29
2024-02-12T03:32:17.082Z,15.27
2024-02-12T03:34:50.148Z,15.30
2024-02-12T03:37:23.072Z,15.32
2024-02-12T03:39:55.945Z,15.32
2024-02-12T03:42:30.542Z,15.30
2024-02-12T03:45:06.277Z,15.31
2024-02-12T03:47:41.036Z,15.28
2024-02-12T03:50:35.036Z,15.30
2024-02-12T03:53:29.178Z,15.35
2024-02-12T03:56:19.904Z,15.32
2024-02-12T03:59:12.643Z,15.28
2024-02-12T04:01:45.635Z,15.32
2024-02-12T04:04:20.491Z,15.35
2024-02-12T04:06:53.967Z,15.35
2024-02-12T04:09:27.832Z,15.36
2024-02-12T04:12:01.049Z,15.34
2024-02-12T04:14:35.590Z,15.32
2024-02-12T04:17:10.720Z,15.33
2024-02-12T04:19:45.527Z,15.32
2024-02-12T04:22:19.244Z,15.30
2024-02-12T04:24:52.416Z,15.33
2024-02-12T04:27:25.815Z,15.34
2024-02-12T04:30:00.325Z,15.36
2024-02-12T04:32:35.052Z,15.38
2024-02-12T04:35:09.560Z,15.35
2024-02-12T04:37:46.661Z,15.39
2024-02-12T04:40:20.483Z,15.39
2024-02-12T04:42:54.912Z,15.39
2024-02-12T04:45:32.024Z,15.38
2024-02-12T04:48:13.523Z,15.34
2024-02-12T04:50:46.926Z,15.36
2024-02-12T04:53:20.286Z,15.34
2024-02-12T04:55:53.574Z,15.32
2024-02-12T04:58:26.697Z,15.34
2024-02-12T05:01:02.888Z,15.30
2024-02-12T05:03:37.480Z,15.28
2024-02-12T05:06:17.076Z,15.26
2024-02-12T05:08:51.680Z,15.26
2024-02-12T05:11:27.180Z,15.24
2024-02-12T05:14:00.689Z,15.23
2024-02-12T05:16:35.572Z,15.25
2024-02-12T05:19:26.692Z,15.28
2024-02-12T05:22:18.468Z,15.27
2024-02-12T05:24:51.556Z,15.29
2024-02-12T05:27:25.571Z,15.25
2024-02-12T05:29:59.100Z,15.22
2024-02-12T05:32:33.970Z,15.20
2024-02-12T05:35:09.782Z,15.25
2024-02-12T05:37:42.727Z,15.21
2024-02-12T05:40:16.665Z,15.25
2024-02-12T05:42:50.920Z,15.20
2024-02-12T05:45:24.038Z,15.19
2024-02-12T05:47:58.967Z,15.17
2024-02-12T05:50:32.537Z,15.17
2024-02-12T05:53:06.420Z,15.18
2024-02-12T05:55:41.020Z,15.17
2024-02-12T05:58:15.783Z,15.10
2024-02-12T06:01:18.736Z,15.10
2024-02-12T06:03:53.584Z,15.11
2024-02-12T06:06:27.224Z,15.06
2024-02-12T06:09:00.481Z,15.06
2024-02-12T06:11:33.767Z,15.01
2024-02-12T06:14:09.228Z,14.97
2024-02-12T06:16:42.518Z,14.99
2024-02-12T06:19:17.425Z,14.95
2024-02-12T06:21:50.534Z,14.92
2024-02-12T06:24:24.010Z,14.98
2024-02-12T06:26:58.000Z,14.98
2024-02-12T06:29:31.106Z,15.01
2024-02-12T06:32:04.587Z,14.97
2024-02-12T06:34:39.001Z,14.97
2024-02-12T06:37:12.670Z,14.97
2024-02-12T06:39:45.811Z,14.95
2024-02-12T06:42:19.746Z,14.92
2024-02-12T06:44:55.319Z,14.87
2024-02-12T06:47:31.032Z,14.85
2024-02-12T06:50:07.876Z,14.81
2024-02-12T06:52:42.320Z,14.79
2024-02-12T06:55:17.073Z,14.75
2024-02-12T06:57:50.304Z,14.75
2024-02-12T07:00:23.226Z,14.72
2024-02-12T07:02:57.219Z,14.75
2024-02-12T07:05:31.986Z,14.71
2024-02-12T07:08:06.507Z,14.72
2024-02-12T07:10:40.079Z,14.71
2024-02-12T07:13:13.203Z,14.53
2024-02-12T07:15:46.584Z,14.52
2024-02-12T07:18:19.417Z,14.54
2024-02-12T07:20:53.828Z,14.52
2024-02-12T07:23:27.943Z,14.51
2024-02-12T07:26:00.932Z,14.48
2024-02-12T07:28:34.269Z,14.50
2024-02-12T07:31:09.120Z,14.54
2024-02-12T07:33:42.220Z,14.53
2024-02-12T07:36:16.597Z,14.51
2024-02-12T07:38:49.611Z,14.48
2024-02-12T07:41:23.801Z,14.42
2024-02-12T07:43:59.329Z,14.44
2024-02-12T07:46:33.141Z,14.38
2024-02-12T07:49:07.406Z,14.38
2024-02-12T07:51:42.078Z,14.37
2024-02-12T07:54:15.446Z,14.36
2024-02-12T07:56:49.873Z,14.33
2024-02-12T07:59:23.327Z,14.33
2024-02-12T08:01:57.041Z,14.34
2024-02-12T08:04:30.370Z,14.32
2024-02-12T08:07:06.353Z,14.34
2024-02-12T08:09:39.705Z,14.38
2024-02-12T08:12:14.538Z,14.43
2024-02-12T08:14:47.539Z,14.57
2024-02-12T08:17:28.227Z,14.76
2024-02-12T08:20:09.888Z,15.02
2024-02-12T08:22:50.734Z,15.35
2024-02-12T08:25:24.536Z,16.13
2024-02-12T08:27:57.974Z,16.60
2024-02-12T08:30:32.904Z,16.94
2024-02-12T08:33:06.769Z,16.59
2024-02-12T08:35:43.969Z,16.64
2024-02-12T08:38:20.047Z,17.02
2024-02-12T08:40:52.944Z,17.15
2024-02-12T08:43:25.707Z,16.58
2024-02-12T08:45:58.815Z,16.12
2024-02-12T08:48:33.589Z,15.72
2024-02-12T08:51:07.251Z,15.48
2024-02-12T08:53:45.365Z,15.31
2024-02-12T08:56:19.871Z,15.20
2024-02-12T08:58:56.733Z,15.25
2024-02-12T09:01:29.814Z,15.20
2024-02-12T09:04:06.097Z,15.18
2024-02-12T09:06:39.802Z,15.16
2024-02-12T09:09:15.251Z,15.03
2024-02-12T09:11:48.257Z,15.01
2024-02-12T09:14:23.885Z,14.93
2024-02-12T09:16:57.264Z,15.09
2024-02-12T09:19:31.198Z,15.07
2024-02-12T09:22:05.465Z,15.04
2024-02-12T09:24:41.240Z,15.01
2024-02-12T09:27:14.389Z,15.04
2024-02-12T09:29:48.621Z,15.04
2024-02-12T09:32:22.760Z,15.01
2024-02-12T09:34:58.696Z,15.03
2024-02-12T09:37:34.077Z,15.08
2024-02-12T09:40:13.035Z,15.10
2024-02-12T09:42:46.987Z,15.14
2024-02-12T09:45:20.998Z,15.15
2024-02-12T09:47:56.855Z,15.14
2024-02-12T09:50:33.239Z,15.18
2024-02-12T09:53:10.483Z,15.15
2024-02-12T09:55:49.478Z,15.18
2024-02-12T09:58:22.821Z,15.19
2024-02-12T10:00:55.845Z,15.21
2024-02-12T10:03:29.976Z,15.24
2024-02-12T10:06:04.037Z,15.18
2024-02-12T10:08:37.292Z,15.28
2024-02-12T10:11:11.824Z,15.37
2024-02-12T10:13:52.243Z,15.41
2024-02-12T10:16:28.124Z,15.46
2024-02-12T10:19:04.504Z,15.48
2024-02-12T10:21:39.975Z,15.48
2024-02-12T10:24:13.253Z,15.45
2024-02-12T10:26:51.187Z,15.50
2024-02-12T10:29:24.298Z,15.53
2024-02-12T10:31:58.762Z,15.57
2024-02-12T10:34:34.659Z,15.60
2024-02-12T10:37:10.578Z,15.60
2024-02-12T10:39:46.566Z,15.67
2024-02-12T10:42:26.540Z,15.66
2024-02-12T10:45:00.871Z,15.76
2024-02-12T10:47:35.381Z,15.78
2024-02-12T10:50:14.356Z,15.79
2024-02-12T10:52:50.136Z,15.87
2024-02-12T10:55:25.835Z,15.91
2024-02-12T10:58:01.261Z,15.88
2024-02-12T11:00:43.526Z,15.98
2024-02-12T11:03:33.907Z,16.01
2024-02-12T11:06:09.949Z,16.07
2024-02-12T11:08:45.045Z,16.20
2024-02-12T11:11:20.657Z,16.32
2024-02-12T11:14:03.030Z,16.35
2024-02-12T11:16:40.591Z,16.46
2024-02-12T11:19:19.719Z,16.51
2024-02-12T11:21:59.566Z,16.51
2024-02-12T11:24:41.052Z,16.52
2024-02-12T11:27:17.404Z,16.52
2024-02-12T11:29:52.067Z,16.53
2024-02-12T11:32:25.400Z,16.52
2024-02-12T11:35:00.430Z,16.46
2024-02-12T11:37:33.989Z,16.48
2024-02-12T11:40:12.816Z,16.51
2024-02-12T11:42:50.724Z,16.63
2024-02-12T11:45:26.770Z,16.57
2024-02-12T11:48:09.668Z,16.62
2024-02-12T11:50:43.021Z,16.70
2024-02-12T11:53:16.271Z,16.82
2024-02-12T11:55:50.311Z,16.96
2024-02-12T11:58:23.654Z,17.06
2024-02-12T12:00:59.823Z,17.19
2024-02-12T12:03:33.954Z,17.17
2024-02-12T12:06:15.068Z,17.11
2024-02-12T12:08:49.825Z,17.03
2024-02-12T12:11:24.277Z,17.27
2024-02-12T12:14:00.830Z,17.35
2024-02-12T12:16:37.664Z,17.40
2024-02-12T12:19:11.555Z,17.40
2024-02-12T12:21:45.576Z,17.31
2024-02-12T12:24:19.008Z,17.19
2024-02-12T12:26:56.272Z,17.27
2024-02-12T12:29:30.188Z,17.34
2024-02-12T12:32:15.101Z,17.40
2024-02-12T12:34:48.642Z,17.37
2024-02-12T12:37:21.763Z,17.38
2024-02-12T12:39:57.435Z,17.27
2024-02-12T12:42:31.768Z,17.27
2024-02-12T12:45:05.654Z,17.29
2024-02-12T12:47:40.423Z,17.23
2024-02-12T12:50:15.785Z,17.08
2024-02-12T12:52:48.952Z,17.15
2024-02-12T12:55:22.215Z,17.20
2024-02-12T12:57:55.625Z,17.33
2024-02-12T13:00:30.174Z,17.42
2024-02-12T13:03:06.807Z,17.36
2024-02-12T13:05:43.100Z,17.28
2024-02-12T13:08:21.633Z,17.24
2024-02-12T13:10:56.778Z,17.33
2024-02-12T13:13:31.151Z,17.30
2024-02-12T13:16:06.624Z,17.21
2024-02-12T13:18:46.978Z,17.16
2024-02-12T13:21:20.412Z,17.09
2024-02-12T13:23:54.542Z,17.21
2024-02-12T13:26:27.689Z,17.21
2024-02-12T13:29:00.959Z,17.27
2024-02-12T13:31:35.908Z,17.17
2024-02-12T13:34:11.799Z,17.21
2024-02-12T13:36:50.937Z,17.29
2024-02-12T13:39:26.936Z,17.36
2024-02-12T13:41:59.884Z,17.40
2024-02-12T13:44:34.319Z,17.36
2024-02-12T13:47:08.456Z,17.37
2024-02-12T13:49:44.709Z,17.40
2024-02-12T13:52:18.803Z,17.41
2024-02-12T13:54:56.376Z,17.47
2024-02-12T13:57:29.505Z,17.46
2024-02-12T14:00:23.680Z,17.49
2024-02-12T14:02:56.010Z,17.48
2024-02-12T14:05:31.786Z,17.45
2024-02-12T14:08:06.386Z,17.42
2024-02-12T14:10:39.958Z,17.35
2024-02-12T14:13:14.097Z,17.37
2024-02-12T14:16:05.000Z,17.40
2024-02-12T14:18:44.066Z,17.30
2024-02-12T14:21:19.924Z,17.20
2024-02-12T14:23:53.166Z,17.20
2024-02-12T14:26:28.410Z,17.18
2024-02-12T14:29:02.518Z,17.17
2024-02-12T14:32:34.209Z,17.24
2024-02-12T14:34:31.483Z,17.25
2024-02-12T14:37:06.664Z,17.22
2024-02-12T14:39:40.712Z,17.14
2024-02-12T14:42:14.122Z,17.09
2024-02-12T14:45:02.468Z,16.88
2024-02-12T14:47:45.840Z,17.09
2024-02-12T14:50:23.269Z,17.14
2024-02-12T14:52:58.097Z,16.93
2024-02-12T14:55:32.142Z,16.98
2024-02-12T14:58:06.810Z,16.93
2024-02-12T15:00:40.585Z,16.89
2024-02-12T15:03:13.994Z,16.96
2024-02-12T15:05:48.087Z,16.91
2024-02-12T15:08:22.843Z,16.91
2024-02-12T15:10:55.901Z,16.88
2024-02-12T15:13:33.743Z,16.73
2024-02-12T15:16:08.459Z,16.69
2024-02-12T15:18:43.690Z,16.56
2024-02-12T15:21:18.262Z,16.62
2024-02-12T15:23:52.910Z,16.64
2024-02-12T15:26:26.018Z,16.67
2024-02-12T15:28:59.357Z,16.63
2024-02-12T15:31:32.876Z,16.59
2024-02-12T15:34:07.486Z,16.48
2024-02-12T15:36:42.136Z,16.44
2024-02-12T15:39:16.902Z,16.38
2024-02-12T15:41:50.371Z,16.37
2024-02-12T15:44:24.004Z,16.32
2024-02-12T15:47:03.301Z,16.25
2024-02-12T15:49:37.790Z,16.34
2024-02-12T15:52:12.123Z,16.33
2024-02-12T15:54:50.481Z,16.12
2024-02-12T15:57:27.450Z,16.32
2024-02-12T16:00:00.865Z,16.26
2024-02-12T16:02:33.887Z,16.33
2024-02-12T16:05:49.437Z,16.11
2024-02-12T16:08:22.631Z,16.23
2024-02-12T16:10:58.867Z,16.17
2024-02-12T16:13:32.731Z,16.17
2024-02-12T16:16:07.752Z,16.19
2024-02-12T16:18:41.591Z,16.23
2024-02-12T16:21:18.372Z,16.24
2024-02-12T16:23:52.738Z,16.25
2024-02-12T16:26:28.161Z,16.18
2024-02-12T16:29:03.280Z,16.16
2024-02-12T16:31:41.318Z,16.15
2024-02-12T16:34:15.632Z,16.09
2024-02-12T16:36:49.920Z,16.02
2024-02-12T16:39:23.870Z,16.02
2024-02-12T16:41:59.192Z,15.93
2024-02-12T16:44:32.210Z,16.02
2024-02-12T16:47:05.505Z,15.89
2024-02-12T16:49:40.864Z,15.86
2024-02-12T16:52:15.205Z,15.87
2024-02-12T16:54:48.914Z,15.94
2024-02-12T16:57:23.456Z,15.92
2024-02-12T16:59:58.445Z,15.90
2024-02-12T17:02:31.926Z,15.94
2024-02-12T17:05:06.359Z,15.97
2024-02-12T17:07:49.383Z,15.95
2024-02-12T17:10:31.021Z,15.93
2024-02-12T17:13:06.913Z,15.96
2024-02-12T17:15:41.639Z,15.91
2024-02-12T17:18:15.483Z,15.87
2024-02-12T17:20:50.668Z,15.85
2024-02-12T17:23:25.109Z,15.79
2024-02-12T17:25:58.407Z,15.80
2024-02-12T17:28:33.193Z,15.76
2024-02-12T17:31:07.436Z,15.73
2024-02-12T17:33:40.766Z,15.70
2024-02-12T17:36:15.277Z,15.67
2024-02-12T17:38:48.969Z,15.70
2024-02-12T17:41:22.276Z,15.68
2024-02-12T17:43:58.522Z,15.69
2024-02-12T17:46:32.157Z,15.63
2024-02-12T17:49:07.596Z,15.59
2024-02-12T17:51:40.788Z,15.55
2024-02-12T17:54:15.778Z,15.53
2024-02-12T17:56:51.129Z,15.50
2024-02-12T17:59:29.782Z,15.48
2024-02-12T18:02:02.785Z,15.46
2024-02-12T18:04:37.095Z,15.37
2024-02-12T18:07:14.272Z,15.36
2024-02-12T18:09:47.698Z,15.36
2024-02-12T18:12:22.995Z,15.40
2024-02-12T18:14:58.122Z,15.37
2024-02-12T18:17:31.812Z,15.31
2024-02-12T18:20:06.361Z,15.34
2024-02-12T18:22:39.410Z,15.33
2024-02-12T18:25:13.111Z,15.36
2024-02-12T18:27:49.899Z,15.34
2024-02-12T18:30:24.457Z,15.29
2024-02-12T18:32:58.056Z,15.27
2024-02-12T18:35:31.362Z,15.24
2024-02-12T18:38:07.915Z,15.20
2024-02-12T18:40:41.074Z,15.19
2024-02-12T18:43:17.579Z,15.17
2024-02-12T18:45:53.006Z,15.18
2024-02-12T18:48:26.230Z,15.14
2024-02-12T18:51:01.223Z,15.10
2024-02-12T18:53:37.641Z,15.04
2024-02-12T18:56:11.248Z,15.03
2024-02-12T18:58:50.259Z,14.97
2024-02-12T19:01:25.172Z,14.97
2024-02-12T19:04:01.870Z,14.95
2024-02-12T19:06:35.313Z,14.97
2024-02-12T19:09:11.581Z,14.95
2024-02-12T19:11:47.556Z,14.94
2024-02-12T19:14:20.896Z,14.85
2024-02-12T19:16:55.597Z,14.76
2024-02-12T19:19:28.651Z,14.73
2024-02-12T19:22:05.314Z,14.72
2024-02-12T19:24:41.155Z,14.73
2024-02-12T19:27:18.155Z,14.63
2024-02-12T19:29:53.251Z,14.67
2024-02-12T19:32:32.803Z,14.72
2024-02-12T19:35:12.298Z,14.71
2024-02-12T19:37:49.174Z,14.71
2024-02-12T19:40:25.844Z,14.70
2024-02-12T19:42:59.149Z,14.73
2024-02-12T19:45:33.792Z,14.62
2024-02-12T19:48:09.759Z,14.55
2024-02-12T19:50:42.945Z,14.53
2024-02-12T19:53:16.695Z,14.51
2024-02-12T19:55:50.526Z,14.50
2024-02-12T19:58:24.001Z,14.50
2024-02-12T20:01:02.751Z,14.46
2024-02-12T20:03:39.796Z,14.47
2024-02-12T20:06:15.472Z,14.43
2024-02-12T20:08:48.722Z,14.47
2024-02-12T20:11:22.061Z,14.43
2024-02-12T20:13:55.485Z,14.43
2024-02-12T20:16:33.694Z,14.37
2024-02-12T20:19:09.172Z,14.38
2024-02-12T20:21:42.522Z,14.37
2024-02-12T20:24:15.772Z,14.33
2024-02-12T20:26:52.947Z,14.32
2024-02-12T20:29:26.959Z,14.27
2024-02-12T20:32:02.639Z,14.22
2024-02-12T20:34:38.884Z,14.17
2024-02-12T20:37:12.792Z,14.04
2024-02-12T20:39:48.233Z,14.09
2024-02-12T20:42:21.910Z,14.07
2024-02-12T20:44:55.440Z,14.02
2024-02-12T20:47:28.426Z,14.03
2024-02-12T20:50:08.389Z,14.02
2024-02-12T20:52:43.824Z,14.08
2024-02-12T20:55:18.423Z,14.12
2024-02-12T20:57:51.490Z,14.14
2024-02-12T21:00:25.017Z,14.10
2024-02-12T21:02:58.765Z,14.06
2024-02-12T21:05:34.123Z,14.02
2024-02-12T21:08:09.088Z,14.02
2024-02-12T21:10:43.512Z,14.02
2024-02-12T21:13:16.760Z,14.02
2024-02-12T21:15:49.747Z,14.04
2024-02-12T21:18:22.793Z,14.06
2024-02-12T21:20:58.674Z,14.09
2024-02-12T21:23:32.114Z,14.12
2024-02-12T21:26:07.810Z,14.09
2024-02-12T21:28:40.929Z,14.12
2024-02-12T21:31:14.087Z,14.09
2024-02-12T21:33:49.026Z,14.08
2024-02-12T21:36:25.452Z,14.09
2024-02-12T21:38:58.929Z,14.08
2024-02-12T21:41:52.356Z,14.06
2024-02-12T21:44:25.540Z,14.06
2024-02-12T21:46:59.180Z,14.01
2024-02-12T21:49:32.803Z,13.96
2024-02-12T21:52:08.396Z,13.92
2024-02-12T21:54:43.108Z,13.89
2024-02-12T21:57:16.487Z,13.84
2024-02-12T21:59:52.062Z,13.78
2024-02-12T22:02:25.758Z,13.76
2024-02-12T22:04:58.872Z,13.76
2024-02-12T22:07:33.862Z,13.74
2024-02-12T22:10:07.847Z,13.74
2024-02-12T22:12:43.820Z,13.70
2024-02-12T22:15:18.863Z,13.71
2024-02-12T22:17:52.186Z,13.76
2024-02-12T22:20:25.235Z,13.70
2024-02-12T22:22:59.754Z,13.74
2024-02-12T22:25:32.911Z,13.69
2024-02-12T22:28:08.941Z,13.64
2024-02-12T22:30:42.363Z,13.59
2024-02-12T22:33:16.823Z,13.50
2024-02-12T22:35:54.767Z,13.45
2024-02-12T22:38:29.883Z,13.40
2024-02-12T22:41:03.888Z,13.49
2024-02-12T22:43:36.905Z,13.72
2024-02-12T22:46:11.351Z,13.72
2024-02-12T22:48:45.176Z,13.65
2024-02-12T22:51:19.087Z,13.72
2024-02-12T22:53:54.623Z,13.70
2024-02-12T22:56:30.224Z,13.76
2024-02-12T22:59:08.059Z,13.72
2024-02-12T23:01:41.449Z,13.72
2024-02-12T23:04:14.883Z,13.70
2024-02-12T23:06:48.327Z,13.71
2024-02-12T23:09:25.002Z,13.59
2024-02-12T23:11:58.781Z,13.54
2024-02-12T23:14:32.038Z,13.61
2024-02-12T23:17:05.583Z,13.65
2024-02-12T23:19:39.554Z,13.64
2024-02-12T23:22:14.456Z,13.62
2024-02-12T23:24:49.136Z,13.55
2024-02-12T23:27:22.316Z,13.54
2024-02-12T23:29:59.694Z,13.54
2024-02-12T23:32:34.068Z,13.54
2024-02-12T23:35:09.712Z,13.51
2024-02-12T23:37:42.687Z,13.46
2024-02-12T23:40:17.703Z,13.50
2024-02-12T23:42:53.240Z,13.51
2024-02-12T23:45:26.663Z,13.49
2024-02-12T23:48:00.161Z,13.48
2024-02-12T23:50:34.051Z,13.48
2024-02-12T23:53:07.214Z,13.48
2024-02-12T23:55:41.879Z,13.44
2024-02-12T23:58:15.033Z,13.39
